Time;durP1;ratioP1;P1;durP2;ratioP2;P2;SDS_P1;SDS_P2;PMS_P1;PMS_P2;Temp;Humidity;BMP_temperature;BMP_pressure;BME280_temperature;BME280_humidity;BME280_pressure;Samples;Min_cycle;Max_cycle;Signal;HPM_P1;HPM_P2
2023/08/01 00:01:47;;;;;;;4.95;2.80;;;;;;;;;;10359569;28;20069;-58
2023/08/01 00:06:48;;;;;;;5.55;2.85;;;;;;;;;;10358393;28;20478;-57
2023/08/01 00:11:49;;;;;;;3.00;2.70;;;;;;;;;;10364772;28;20049;-57
2023/08/01 00:16:51;;;;;;;7.20;2.90;;;;;;;;;;10365488;28;20033;-57
2023/08/01 00:21:51;;;;;;;2.83;2.30;;;;;;;;;;10336704;28;20027;-57
2023/08/01 00:26:55;;;;;;;3.03;2.60;;;;;;;;;;10339911;28;20035;-56
2023/08/01 00:31:55;;;;;;;5.70;2.30;;;;;;;;;;10359102;28;20041;-55
2023/08/01 00:36:57;;;;;;;8.38;2.80;;;;;;;;;;10359703;28;20061;-56
2023/08/01 00:41:57;;;;;;;3.13;2.42;;;;;;;;;;10380341;28;20426;-57
2023/08/01 00:46:58;;;;;;;7.25;2.50;;;;;;;;;;10361854;28;20034;-58
2023/08/01 00:51:59;;;;;;;5.50;2.05;;;;;;;;;;10352045;28;20374;-57
2023/08/01 00:56:59;;;;;;;2.42;2.13;;;;;;;;;;10337239;28;20030;-57
2023/08/01 01:02:00;;;;;;;3.25;2.67;;;;;;;;;;10341069;28;20033;-56
2023/08/01 01:07:05;;;;;;;4.50;2.40;;;;;;;;;;10351085;28;20041;-58
2023/08/01 01:12:07;;;;;;;5.18;2.63;;;;;;;;;;10362709;28;20064;-57
2023/08/01 01:17:07;;;;;;;6.97;2.33;;;;;;;;;;10358559;28;20064;-57
2023/08/01 01:22:10;;;;;;;3.55;2.55;;;;;;;;;;10356774;28;20475;-57
2023/08/01 01:27:12;;;;;;;3.25;2.10;;;;;;;;;;10347356;28;20030;-58
2023/08/01 01:32:14;;;;;;;4.07;2.30;;;;;;;;;;10338162;28;20112;-58
2023/08/01 01:37:14;;;;;;;2.53;2.00;;;;;;;;;;10334663;28;20038;-58
2023/08/01 01:42:15;;;;;;;4.68;2.13;;;;;;;;;;10344459;28;20041;-57
2023/08/01 01:47:17;;;;;;;3.17;2.22;;;;;;;;;;10344538;28;20031;-57
2023/08/01 01:52:18;;;;;;;3.47;2.05;;;;;;;;;;10332398;28;20026;-57
2023/08/01 01:57:18;;;;;;;3.42;2.17;;;;;;;;;;10331733;28;20030;-57
2023/08/01 02:02:19;;;;;;;2.58;1.95;;;;;;;;;;10331276;28;20033;-57
2023/08/01 02:07:19;;;;;;;2.65;2.08;;;;;;;;;;10355407;28;20030;-57
2023/08/01 02:12:20;;;;;;;3.67;2.30;;;;;;;;;;10347177;28;20089;-59
2023/08/01 02:17:21;;;;;;;5.05;2.45;;;;;;;;;;10349621;28;20022;-58
2023/08/01 02:22:22;;;;;;;3.13;2.35;;;;;;;;;;10362611;28;20046;-57
2023/08/01 02:27:22;;;;;;;3.47;2.33;;;;;;;;;;10333463;28;20034;-56
2023/08/01 02:32:23;;;;;;;3.95;2.67;;;;;;;;;;10330290;28;20387;-56
2023/08/01 02:37:23;;;;;;;3.10;2.38;;;;;;;;;;10365796;28;20412;-56
2023/08/01 02:42:24;;;;;;;3.38;2.50;;;;;;;;;;10355104;28;20109;-57
2023/08/01 02:47:24;;;;;;;2.47;2.20;;;;;;;;;;10330838;28;20034;-57
2023/08/01 02:52:25;;;;;;;7.50;2.40;;;;;;;;;;10341929;28;20447;-57
2023/08/01 02:57:26;;;;;;;3.70;2.42;;;;;;;;;;10354678;28;20042;-58
2023/08/01 03:02:27;;;;;;;6.00;2.42;;;;;;;;;;10344751;28;20034;-57
2023/08/01 03:07:28;;;;;;;4.20;2.65;;;;;;;;;;10330184;28;20026;-57
2023/08/01 03:12:28;;;;;;;3.92;2.63;;;;;;;;;;10336464;28;20029;-57
2023/08/01 03:17:29;;;;;;;4.55;2.58;;;;;;;;;;10350651;28;20132;-57
2023/08/01 03:22:29;;;;;;;5.88;2.42;;;;;;;;;;10344605;28;20080;-57
2023/08/01 03:27:30;;;;;;;4.15;2.55;;;;;;;;;;10354315;28;20033;-58
2023/08/01 03:32:31;;;;;;;13.02;2.78;;;;;;;;;;10340979;28;20037;-57
2023/08/01 03:37:32;;;;;;;4.47;2.90;;;;;;;;;;10341428;28;20046;-58
2023/08/01 03:42:33;;;;;;;2.95;2.63;;;;;;;;;;10340470;28;20367;-57
2023/08/01 03:47:33;;;;;;;4.22;2.45;;;;;;;;;;10352065;28;20025;-58
2023/08/01 03:52:34;;;;;;;6.82;3.10;;;;;;;;;;10340093;28;20030;-56
2023/08/01 03:57:34;;;;;;;2.67;2.40;;;;;;;;;;10340575;28;20030;-57
2023/08/01 04:02:35;;;;;;;6.97;2.65;;;;;;;;;;10340465;28;20081;-56
2023/08/01 04:07:37;;;;;;;5.07;2.70;;;;;;;;;;10349214;28;20025;-56
2023/08/01 04:12:38;;;;;;;3.60;2.53;;;;;;;;;;10346434;28;20026;-56
2023/08/01 04:17:38;;;;;;;2.30;2.10;;;;;;;;;;10365135;28;20022;-59
2023/08/01 04:22:39;;;;;;;9.13;2.63;;;;;;;;;;10343568;28;20019;-57
2023/08/01 04:27:40;;;;;;;7.50;2.88;;;;;;;;;;10340307;28;20033;-58
2023/08/01 04:32:40;;;;;;;5.40;2.72;;;;;;;;;;10348184;28;20077;-58
2023/08/01 04:37:41;;;;;;;3.38;2.83;;;;;;;;;;10336479;28;20072;-57
2023/08/01 04:42:41;;;;;;;5.07;2.22;;;;;;;;;;10335214;28;20449;-56
2023/08/01 04:47:42;;;;;;;4.30;2.65;;;;;;;;;;10334374;28;20034;-57
2023/08/01 04:52:42;;;;;;;2.85;2.40;;;;;;;;;;10348610;28;20033;-56
2023/08/01 04:57:43;;;;;;;3.78;2.63;;;;;;;;;;10361663;28;20040;-57
2023/08/01 05:02:43;;;;;;;5.13;2.97;;;;;;;;;;10370277;28;20033;-58
2023/08/01 05:07:44;;;;;;;19.88;2.83;;;;;;;;;;10369479;28;20022;-58
2023/08/01 05:12:45;;;;;;;5.60;2.53;;;;;;;;;;10355207;28;20065;-58
2023/08/01 05:17:45;;;;;;;4.03;2.90;;;;;;;;;;10369323;28;20022;-58
2023/08/01 05:22:46;;;;;;;16.67;2.45;;;;;;;;;;10370033;28;20073;-59
2023/08/01 05:27:46;;;;;;;2.92;1.95;;;;;;;;;;10367946;28;20033;-58
2023/08/01 05:32:47;;;;;;;8.93;2.50;;;;;;;;;;10359602;28;20033;-59
2023/08/01 05:37:47;;;;;;;9.25;2.53;;;;;;;;;;10320362;23;20073;-56
2023/08/01 05:42:48;;;;;;;3.58;2.50;;;;;;;;;;10286075;28;20035;-57
2023/08/01 05:47:49;;;;;;;3.05;2.00;;;;;;;;;;10291381;28;20035;-58
2023/08/01 05:52:49;;;;;;;7.03;1.85;;;;;;;;;;10287219;28;20045;-57
2023/08/01 05:57:52;;;;;;;20.58;3.00;;;;;;;;;;10286539;28;20081;-58
2023/08/01 06:02:53;;;;;;;10.95;2.58;;;;;;;;;;10283690;28;20054;-63
2023/08/01 06:07:53;;;;;;;7.55;2.78;;;;;;;;;;10287287;28;20113;-61
2023/08/01 06:12:54;;;;;;;7.05;2.70;;;;;;;;;;10285556;28;20018;-58
2023/08/01 06:17:54;;;;;;;12.15;2.80;;;;;;;;;;10288355;28;20027;-58
2023/08/01 06:22:55;;;;;;;9.90;2.85;;;;;;;;;;10287048;28;20089;-59
2023/08/01 06:27:55;;;;;;;4.65;2.65;;;;;;;;;;10287217;28;20509;-58
2023/08/01 06:32:56;;;;;;;8.45;3.00;;;;;;;;;;10288195;28;20023;-60
2023/08/01 06:37:57;;;;;;;7.18;2.72;;;;;;;;;;10288137;28;20035;-61
2023/08/01 06:42:57;;;;;;;3.90;2.45;;;;;;;;;;10288096;28;20037;-58
2023/08/01 06:47:58;;;;;;;7.18;2.55;;;;;;;;;;10287643;28;20030;-60
2023/08/01 06:52:58;;;;;;;6.65;2.85;;;;;;;;;;10287833;28;20023;-58
2023/08/01 06:57:59;;;;;;;6.57;2.92;;;;;;;;;;10287973;28;20479;-63
2023/08/01 07:03:00;;;;;;;8.15;3.38;;;;;;;;;;10287725;28;20019;-59
2023/08/01 07:08:00;;;;;;;5.65;3.10;;;;;;;;;;10287401;28;20032;-58
2023/08/01 07:13:05;;;;;;;11.60;2.97;;;;;;;;;;10286240;28;20042;-62
2023/08/01 07:18:05;;;;;;;4.25;2.25;;;;;;;;;;10285556;28;20165;-58
2023/08/01 07:23:06;;;;;;;6.65;2.60;;;;;;;;;;10285568;28;20084;-59
2023/08/01 07:28:06;;;;;;;7.78;2.80;;;;;;;;;;10285504;28;20038;-62
2023/08/01 07:33:07;;;;;;;5.63;2.50;;;;;;;;;;10285511;28;20114;-56
2023/08/01 07:38:08;;;;;;;5.43;2.45;;;;;;;;;;10290849;28;20435;-58
2023/08/01 07:43:08;;;;;;;5.93;2.47;;;;;;;;;;10293326;28;20387;-59
2023/08/01 07:48:09;;;;;;;3.92;2.53;;;;;;;;;;10293364;28;20023;-58
2023/08/01 07:53:10;;;;;;;6.85;2.72;;;;;;;;;;10293861;28;20267;-58
2023/08/01 07:58:10;;;;;;;6.15;2.47;;;;;;;;;;10293259;28;20366;-58
2023/08/01 08:03:11;;;;;;;3.88;2.63;;;;;;;;;;10292624;28;20038;-58
2023/08/01 08:08:11;;;;;;;6.63;2.42;;;;;;;;;;10292676;28;20085;-63
2023/08/01 08:13:12;;;;;;;3.45;2.30;;;;;;;;;;10292747;28;20027;-59
2023/08/01 08:18:13;;;;;;;4.65;2.50;;;;;;;;;;10292836;28;20031;-58
2023/08/01 08:23:16;;;;;;;4.43;2.50;;;;;;;;;;10291901;28;20030;-58
2023/08/01 08:28:32;;;;;;;3.90;2.60;;;;;;;;;;10291929;28;20031;-58
2023/08/01 08:33:33;;;;;;;4.65;2.42;;;;;;;;;;10291530;28;20026;-58
2023/08/01 08:38:34;;;;;;;3.53;2.50;;;;;;;;;;10291188;28;20046;-58
2023/08/01 08:43:35;;;;;;;3.10;2.17;;;;;;;;;;10291554;28;20034;-59
2023/08/01 08:48:38;;;;;;;4.57;2.60;;;;;;;;;;10291256;28;20057;-58
2023/08/01 08:53:40;;;;;;;3.90;2.42;;;;;;;;;;10290819;28;20023;-58
2023/08/01 08:58:42;;;;;;;5.55;2.38;;;;;;;;;;10291134;28;20345;-62
2023/08/01 09:03:44;;;;;;;5.45;2.65;;;;;;;;;;10290522;28;20019;-62
2023/08/01 09:09:04;;;;;;;4.63;2.67;;;;;;;;;;10290592;28;20035;-59
2023/08/01 09:14:04;;;;;;;8.27;2.40;;;;;;;;;;10305480;28;20081;-58
2023/08/01 09:19:06;;;;;;;4.00;2.53;;;;;;;;;;10290117;28;20027;-60
2023/08/01 09:24:19;;;;;;;6.22;2.75;;;;;;;;;;10290206;28;20031;-57
2023/08/01 09:29:20;;;;;;;5.25;2.22;;;;;;;;;;10289249;28;20022;-58
2023/08/01 09:34:26;;;;;;;5.00;2.60;;;;;;;;;;10289031;28;20035;-57
2023/08/01 09:39:27;;;;;;;3.30;2.10;;;;;;;;;;10289643;28;20026;-58
2023/08/01 09:44:29;;;;;;;6.30;2.28;;;;;;;;;;10289024;28;20557;-61
2023/08/01 09:49:31;;;;;;;5.63;2.05;;;;;;;;;;10289154;28;20386;-58
2023/08/01 09:54:31;;;;;;;4.60;2.45;;;;;;;;;;10289600;28;20089;-63
2023/08/01 09:59:33;;;;;;;3.65;2.45;;;;;;;;;;10287999;28;20085;-58
2023/08/01 10:04:36;;;;;;;4.53;2.20;;;;;;;;;;10288662;28;20058;-58
2023/08/01 10:09:37;;;;;;;4.68;2.28;;;;;;;;;;10286923;28;20081;-58
2023/08/01 10:14:38;;;;;;;6.82;2.40;;;;;;;;;;10286421;28;20113;-62
2023/08/01 10:19:40;;;;;;;4.45;1.90;;;;;;;;;;10288166;28;20030;-59
2023/08/01 10:24:41;;;;;;;3.58;2.33;;;;;;;;;;10287052;28;20434;-58
2023/08/01 10:29:43;;;;;;;3.55;2.13;;;;;;;;;;10286440;28;20152;-58
2023/08/01 10:34:51;;;;;;;4.68;2.75;;;;;;;;;;10286699;28;20057;-58
2023/08/01 10:39:59;;;;;;;4.22;2.22;;;;;;;;;;10286906;28;20027;-58
2023/08/01 10:45:00;;;;;;;2.53;2.00;;;;;;;;;;10286885;28;20364;-58
2023/08/01 10:50:01;;;;;;;4.00;2.20;;;;;;;;;;10286843;28;20028;-59
2023/08/01 10:55:05;;;;;;;3.45;2.20;;;;;;;;;;10286676;28;20026;-58
2023/08/01 11:00:09;;;;;;;2.60;1.95;;;;;;;;;;10285578;28;20407;-58
2023/08/01 11:05:11;;;;;;;3.03;2.20;;;;;;;;;;10286464;28;20627;-58
2023/08/01 11:10:13;;;;;;;3.72;2.53;;;;;;;;;;10284647;28;20031;-58
2023/08/01 11:15:15;;;;;;;3.08;2.20;;;;;;;;;;10285881;28;20031;-58
2023/08/01 11:20:17;;;;;;;3.53;1.85;;;;;;;;;;10285377;28;20193;-58
2023/08/01 11:25:18;;;;;;;6.32;2.30;;;;;;;;;;10285042;28;20026;-58
2023/08/01 11:30:19;;;;;;;3.13;2.33;;;;;;;;;;10284798;28;20042;-59
2023/08/01 11:35:19;;;;;;;2.63;1.95;;;;;;;;;;10283913;28;20055;-58
2023/08/01 11:40:20;;;;;;;2.53;1.80;;;;;;;;;;10284190;28;20042;-58
2023/08/01 11:45:21;;;;;;;2.65;1.83;;;;;;;;;;10283391;28;20034;-59
2023/08/01 11:50:24;;;;;;;3.25;1.98;;;;;;;;;;10285399;28;20054;-58
2023/08/01 11:55:27;;;;;;;3.50;2.13;;;;;;;;;;10285194;28;20031;-57
2023/08/01 12:00:29;;;;;;;2.83;2.08;;;;;;;;;;10285426;28;20435;-57
2023/08/01 12:05:29;;;;;;;3.47;2.20;;;;;;;;;;10300431;28;20027;-57
2023/08/01 12:10:50;;;;;;;2.97;2.28;;;;;;;;;;10284332;28;20034;-59
2023/08/01 12:15:53;;;;;;;7.65;2.38;;;;;;;;;;10283828;28;20038;-58
2023/08/01 12:20:54;;;;;;;3.13;2.20;;;;;;;;;;10284921;28;20030;-59
2023/08/01 12:25:54;;;;;;;3.30;2.50;;;;;;;;;;10289781;28;20375;-58
2023/08/01 12:30:58;;;;;;;3.95;2.42;;;;;;;;;;10290909;28;20031;-60
2023/08/01 12:36:03;;;;;;;2.53;2.28;;;;;;;;;;10290981;28;20050;-60
2023/08/01 12:41:04;;;;;;;2.90;2.45;;;;;;;;;;10291469;28;20366;-58
2023/08/01 12:46:04;;;;;;;5.82;2.60;;;;;;;;;;10290472;28;20041;-61
2023/08/01 12:51:05;;;;;;;7.22;2.35;;;;;;;;;;10294976;28;20042;-58
2023/08/01 12:56:06;;;;;;;5.07;2.45;;;;;;;;;;10290436;28;20023;-58
2023/08/01 13:01:07;;;;;;;4.18;2.33;;;;;;;;;;10289157;28;20027;-59
2023/08/01 13:06:12;;;;;;;8.60;3.17;;;;;;;;;;10289312;28;20501;-58
2023/08/01 13:11:14;;;;;;;8.90;3.00;;;;;;;;;;10292967;28;20256;-60
2023/08/01 13:16:15;;;;;;;5.05;2.60;;;;;;;;;;10288910;28;20321;-58
2023/08/01 13:21:15;;;;;;;4.68;2.33;;;;;;;;;;10288330;28;20289;-57
2023/08/01 13:26:16;;;;;;;16.15;3.10;;;;;;;;;;10289990;28;20045;-59
2023/08/01 13:31:16;;;;;;;9.43;2.60;;;;;;;;;;10289281;28;20039;-58
2023/08/01 13:36:18;;;;;;;2.72;2.42;;;;;;;;;;10288026;28;20097;-63
2023/08/01 13:41:19;;;;;;;3.13;2.58;;;;;;;;;;10290738;28;20031;-59
2023/08/01 13:46:19;;;;;;;3.67;2.50;;;;;;;;;;10289914;28;20410;-59
2023/08/01 13:51:20;;;;;;;9.13;3.05;;;;;;;;;;10290209;28;20082;-59
2023/08/01 13:56:21;;;;;;;3.25;2.72;;;;;;;;;;10289696;28;20027;-58
2023/08/01 14:01:22;;;;;;;7.03;3.13;;;;;;;;;;10288485;28;20495;-58
2023/08/01 14:06:23;;;;;;;3.95;2.88;;;;;;;;;;10288210;28;20107;-58
2023/08/01 14:11:24;;;;;;;4.00;2.65;;;;;;;;;;10288166;28;20085;-60
2023/08/01 14:16:24;;;;;;;6.93;2.65;;;;;;;;;;10288043;28;20079;-59
2023/08/01 14:21:25;;;;;;;4.82;2.67;;;;;;;;;;10287729;28;20034;-61
2023/08/01 14:26:25;;;;;;;5.30;2.88;;;;;;;;;;10287529;28;20034;-61
2023/08/01 14:31:26;;;;;;;3.22;2.65;;;;;;;;;;10288378;28;20023;-60
2023/08/01 14:36:26;;;;;;;3.50;2.75;;;;;;;;;;10287456;28;20046;-58
2023/08/01 14:41:27;;;;;;;3.00;2.70;;;;;;;;;;10286564;28;20030;-60
2023/08/01 14:46:27;;;;;;;3.90;2.80;;;;;;;;;;10286586;28;20030;-63
2023/08/01 14:51:28;;;;;;;4.68;2.40;;;;;;;;;;10287545;28;20027;-63
2023/08/01 14:56:29;;;;;;;11.65;2.60;;;;;;;;;;10285940;28;20498;-63
2023/08/01 15:01:30;;;;;;;3.10;2.45;;;;;;;;;;10286235;28;20022;-63
2023/08/01 15:06:31;;;;;;;2.90;2.28;;;;;;;;;;10286696;28;20027;-64
2023/08/01 15:11:31;;;;;;;3.60;2.50;;;;;;;;;;10287910;28;20086;-63
2023/08/01 15:16:32;;;;;;;3.22;2.38;;;;;;;;;;10285773;28;20026;-60
2023/08/01 15:21:32;;;;;;;6.50;2.47;;;;;;;;;;10284916;28;20034;-61
2023/08/01 15:26:33;;;;;;;4.25;2.40;;;;;;;;;;10285085;28;20027;-63
2023/08/01 15:31:35;;;;;;;6.80;2.97;;;;;;;;;;10286948;28;20027;-63
2023/08/01 15:36:36;;;;;;;3.95;2.58;;;;;;;;;;10285843;28;20035;-58
2023/08/01 15:41:36;;;;;;;2.50;2.30;;;;;;;;;;10285783;28;20386;-63
2023/08/01 15:46:37;;;;;;;3.70;2.60;;;;;;;;;;10285800;28;20030;-64
2023/08/01 15:51:37;;;;;;;3.95;2.35;;;;;;;;;;10285676;28;20085;-63
2023/08/01 15:56:38;;;;;;;8.02;2.88;;;;;;;;;;10286105;28;20035;-62
2023/08/01 16:01:39;;;;;;;4.60;2.70;;;;;;;;;;10293514;28;20041;-62
2023/08/01 16:06:39;;;;;;;6.25;2.65;;;;;;;;;;10293017;28;20034;-63
2023/08/01 16:11:40;;;;;;;4.40;2.75;;;;;;;;;;10294346;28;20031;-63
2023/08/01 16:16:40;;;;;;;3.38;2.40;;;;;;;;;;10292736;28;20023;-63
2023/08/01 16:21:41;;;;;;;3.10;2.75;;;;;;;;;;10292262;28;20018;-62
2023/08/01 16:26:41;;;;;;;3.20;2.42;;;;;;;;;;10291594;28;20027;-64
2023/08/01 16:31:42;;;;;;;4.07;2.80;;;;;;;;;;10291867;28;20030;-63
2023/08/01 16:36:43;;;;;;;2.80;2.58;;;;;;;;;;10291052;28;20042;-58
2023/08/01 16:41:43;;;;;;;4.00;2.85;;;;;;;;;;10288931;28;20035;-63
2023/08/01 16:46:44;;;;;;;4.50;2.75;;;;;;;;;;10287793;28;20039;-59
2023/08/01 16:51:44;;;;;;;5.50;2.63;;;;;;;;;;10290967;28;20027;-64
2023/08/01 16:56:45;;;;;;;3.50;2.47;;;;;;;;;;10288837;28;20031;-66
2023/08/01 17:01:45;;;;;;;2.97;2.67;;;;;;;;;;10285772;28;20038;-63
2023/08/01 17:06:46;;;;;;;4.85;2.97;;;;;;;;;;10289852;28;20034;-63
2023/08/01 17:11:47;;;;;;;3.00;2.50;;;;;;;;;;10289746;28;20037;-63
2023/08/01 17:16:48;;;;;;;4.53;2.47;;;;;;;;;;10289690;28;20030;-63
2023/08/01 17:21:48;;;;;;;3.67;2.97;;;;;;;;;;10290023;28;20383;-64
2023/08/01 17:26:49;;;;;;;7.60;2.83;;;;;;;;;;10288154;28;20031;-63
2023/08/01 17:31:50;;;;;;;3.92;2.58;;;;;;;;;;10288478;28;20034;-63
2023/08/01 17:36:50;;;;;;;4.75;2.67;;;;;;;;;;10286772;28;20039;-58
2023/08/01 17:41:53;;;;;;;3.08;2.35;;;;;;;;;;10286265;28;20037;-61
2023/08/01 17:46:53;;;;;;;4.05;2.60;;;;;;;;;;10284447;28;20104;-59
2023/08/01 17:51:54;;;;;;;4.18;2.70;;;;;;;;;;10292865;28;20039;-58
2023/08/01 17:56:55;;;;;;;6.05;2.85;;;;;;;;;;10285647;28;20482;-58
2023/08/01 18:01:55;;;;;;;3.03;2.70;;;;;;;;;;10287139;28;20499;-62
2023/08/01 18:06:56;;;;;;;4.45;2.88;;;;;;;;;;10286154;28;20039;-58
2023/08/01 18:11:56;;;;;;;7.38;2.90;;;;;;;;;;10285236;28;20026;-58
2023/08/01 18:16:57;;;;;;;2.75;2.38;;;;;;;;;;10282743;28;20093;-59
2023/08/01 18:21:57;;;;;;;4.70;2.78;;;;;;;;;;10283823;28;20399;-59
2023/08/01 18:26:58;;;;;;;4.32;2.90;;;;;;;;;;10281543;28;20395;-59
2023/08/01 18:31:59;;;;;;;3.15;2.63;;;;;;;;;;10283337;28;20030;-59
2023/08/01 18:36:59;;;;;;;4.25;3.05;;;;;;;;;;10283394;28;20038;-58
2023/08/01 18:42:00;;;;;;;3.30;3.00;;;;;;;;;;10280123;28;20085;-58
2023/08/01 18:47:00;;;;;;;4.03;2.63;;;;;;;;;;10282257;28;20034;-58
2023/08/01 18:52:01;;;;;;;6.22;3.60;;;;;;;;;;10282650;28;20026;-61
2023/08/01 18:57:01;;;;;;;5.10;4.25;;;;;;;;;;10284621;28;20027;-59
2023/08/01 19:02:02;;;;;;;6.30;4.22;;;;;;;;;;10281964;28;20037;-60
2023/08/01 19:07:03;;;;;;;6.60;3.40;;;;;;;;;;10279419;28;20038;-59
2023/08/01 19:12:07;;;;;;;4.18;3.45;;;;;;;;;;10281677;28;20022;-59
2023/08/01 19:17:08;;;;;;;4.53;3.60;;;;;;;;;;10284153;28;20031;-59
2023/08/01 19:22:08;;;;;;;5.43;3.30;;;;;;;;;;10281164;28;20406;-58
2023/08/01 19:27:09;;;;;;;8.38;2.88;;;;;;;;;;10283230;28;20027;-59
2023/08/01 19:32:10;;;;;;;15.77;3.30;;;;;;;;;;10261900;28;20426;-60
2023/08/01 19:37:11;;;;;;;7.45;2.92;;;;;;;;;;10198888;28;20428;-60
2023/08/01 19:42:12;;;;;;;3.30;2.42;;;;;;;;;;10201833;28;20475;-63
2023/08/01 19:47:13;;;;;;;5.63;2.90;;;;;;;;;;10246906;28;20042;-58
2023/08/01 19:52:13;;;;;;;4.30;2.90;;;;;;;;;;10291711;28;20034;-60
2023/08/01 19:57:14;;;;;;;4.15;2.28;;;;;;;;;;10285176;28;20028;-60
2023/08/01 20:02:15;;;;;;;2.92;2.60;;;;;;;;;;10289648;28;20509;-61
2023/08/01 20:07:16;;;;;;;3.90;2.50;;;;;;;;;;10290749;28;20529;-59
2023/08/01 20:12:16;;;;;;;4.25;2.42;;;;;;;;;;10289352;28;20129;-60
2023/08/01 20:17:17;;;;;;;3.75;1.98;;;;;;;;;;10281955;28;20363;-59
2023/08/01 20:22:21;;;;;;;2.85;2.00;;;;;;;;;;10285987;28;20460;-61
2023/08/01 20:27:22;;;;;;;2.83;1.55;;;;;;;;;;10288375;28;20084;-60
2023/08/01 20:32:22;;;;;;;2.75;2.00;;;;;;;;;;10289068;28;20483;-62
2023/08/01 20:37:23;;;;;;;2.05;1.58;;;;;;;;;;10288275;28;20053;-59
2023/08/01 20:42:23;;;;;;;2.22;1.58;;;;;;;;;;10278960;28;20067;-60
2023/08/01 20:47:24;;;;;;;1.98;1.73;;;;;;;;;;10282940;28;21882;-60
2023/08/01 20:52:25;;;;;;;3.85;1.98;;;;;;;;;;10294907;28;20753;-64
2023/08/01 20:57:25;;;;;;;5.65;1.80;;;;;;;;;;10293131;28;20495;-54
2023/08/01 21:02:26;;;;;;;10.18;1.58;;;;;;;;;;10278106;28;20030;-52
2023/08/01 21:07:28;;;;;;;2.08;1.77;;;;;;;;;;10296216;28;20108;-58
2023/08/01 21:12:29;;;;;;;2.25;1.70;;;;;;;;;;10294797;28;20501;-58
2023/08/01 21:17:29;;;;;;;2.22;1.67;;;;;;;;;;10290681;28;20088;-52
2023/08/01 21:22:30;;;;;;;4.18;1.98;;;;;;;;;;10291704;28;20810;-56
2023/08/01 21:27:30;;;;;;;3.03;1.75;;;;;;;;;;10320612;28;20121;-57
2023/08/01 21:32:31;;;;;;;3.45;1.50;;;;;;;;;;10367844;28;20481;-56
2023/08/01 21:37:32;;;;;;;1.42;1.33;;;;;;;;;;10364583;28;20089;-49
2023/08/01 21:42:33;;;;;;;1.55;1.45;;;;;;;;;;10369106;28;20160;-59
2023/08/01 21:47:35;;;;;;;7.15;1.50;;;;;;;;;;10368914;28;20121;-56
2023/08/01 21:52:35;;;;;;;4.35;1.23;;;;;;;;;;10368338;28;20151;-59
2023/08/01 21:57:36;;;;;;;19.67;1.95;;;;;;;;;;10369120;28;20025;-58
2023/08/01 22:02:38;;;;;;;2.67;1.63;;;;;;;;;;10369594;28;20033;-59
2023/08/01 22:07:38;;;;;;;18.90;1.60;;;;;;;;;;10368920;28;20022;-58
2023/08/01 22:12:42;;;;;;;12.02;2.40;;;;;;;;;;10369125;28;20478;-60
2023/08/01 22:17:42;;;;;;;6.20;1.55;;;;;;;;;;10368650;28;20038;-60
2023/08/01 22:22:43;;;;;;;12.13;1.70;;;;;;;;;;10367603;28;20033;-59
2023/08/01 22:27:43;;;;;;;10.52;1.40;;;;;;;;;;10366949;28;20099;-60
2023/08/01 22:32:44;;;;;;;9.63;1.48;;;;;;;;;;10365644;28;20038;-59
2023/08/01 22:37:45;;;;;;;6.07;1.48;;;;;;;;;;10367867;28;20139;-60
2023/08/01 22:42:45;;;;;;;1.63;1.20;;;;;;;;;;10367827;28;20037;-59
2023/08/01 22:47:46;;;;;;;2.63;0.95;;;;;;;;;;10367451;28;20397;-59
2023/08/01 22:52:49;;;;;;;2.65;1.10;;;;;;;;;;10368205;28;20489;-59
2023/08/01 22:57:49;;;;;;;4.93;1.20;;;;;;;;;;10368852;28;20038;-58
2023/08/01 23:02:50;;;;;;;5.45;1.10;;;;;;;;;;10368262;28;20037;-59
2023/08/01 23:07:51;;;;;;;1.90;1.00;;;;;;;;;;10365489;28;20370;-59
2023/08/01 23:12:52;;;;;;;4.07;1.17;;;;;;;;;;10366786;28;20030;-58
2023/08/01 23:17:52;;;;;;;5.82;1.35;;;;;;;;;;10367012;28;20030;-58
2023/08/01 23:22:53;;;;;;;5.55;1.27;;;;;;;;;;10364542;28;20036;-59
2023/08/01 23:27:54;;;;;;;8.25;1.10;;;;;;;;;;10364603;28;20025;-63
2023/08/01 23:32:55;;;;;;;1.30;1.20;;;;;;;;;;10366884;28;20084;-60
2023/08/01 23:37:58;;;;;;;1.60;0.98;;;;;;;;;;10365844;28;20038;-60
2023/08/01 23:42:58;;;;;;;3.20;1.20;;;;;;;;;;10365485;28;20581;-59
2023/08/01 23:47:59;;;;;;;3.00;0.90;;;;;;;;;;10364522;28;20030;-59
2023/08/01 23:52:59;;;;;;;1.20;0.90;;;;;;;;;;10365316;28;20018;-59
